Crane, Washington
Current Conditions -  °F | °C
As of 7:53 PM on Tuesday 27 Jan 2015 (Local Time) from KCLM Reporting Station
Overcast Overcast  
Wind Chill: 42°   Ceiling: 1900
Heat Index: 46°   Visibility: 10mi
Dew Point: 38°   Wind: 8mph
Humidity: 73%   Direction: 290°WNW
Pressure: 30.2"   Gusts: NA
Location:  48.1359°N, 123.734°W
Report Text: KCLM 280353Z AUTO 29007KT 10SM OVC019 08/03 A3020 RMK AO2 SLP230 T00780033 $
Loading
Personal Weather Stations






























Interactive Weather Map New forecast layout! Learn more

10-Day Weather Forecast

Advertisements
Track Severe Weather on mobile